sensor_id;sensor_type;location;lat;lon;timestamp;P1;durP1;ratioP1;P2;durP2;ratioP2
4575;SDS011;2300;51.874;8.430;2023-04-15T00:02:19;85.73;;;80.93;;
4575;SDS011;2300;51.874;8.430;2023-04-15T00:04:45;93.40;;;88.03;;
4575;SDS011;2300;51.874;8.430;2023-04-15T00:07:13;86.73;;;81.90;;
4575;SDS011;2300;51.874;8.430;2023-04-15T00:09:41;78.63;;;74.13;;
4575;SDS011;2300;51.874;8.430;2023-04-15T00:12:08;84.03;;;79.03;;
4575;SDS011;2300;51.874;8.430;2023-04-15T00:14:36;86.33;;;81.33;;
4575;SDS011;2300;51.874;8.430;2023-04-15T00:17:03;81.37;;;76.53;;
4575;SDS011;2300;51.874;8.430;2023-04-15T00:19:29;82.73;;;77.87;;
4575;SDS011;2300;51.874;8.430;2023-04-15T00:21:56;85.03;;;80.40;;
4575;SDS011;2300;51.874;8.430;2023-04-15T00:24:23;78.50;;;73.87;;
4575;SDS011;2300;51.874;8.430;2023-04-15T00:26:50;81.97;;;77.17;;
4575;SDS011;2300;51.874;8.430;2023-04-15T00:29:17;88.53;;;83.17;;
4575;SDS011;2300;51.874;8.430;2023-04-15T00:31:44;95.40;;;90.07;;
4575;SDS011;2300;51.874;8.430;2023-04-15T00:34:10;92.37;;;86.80;;
4575;SDS011;2300;51.874;8.430;2023-04-15T00:36:37;90.63;;;85.17;;
4575;SDS011;2300;51.874;8.430;2023-04-15T00:39:04;103.20;;;97.20;;
4575;SDS011;2300;51.874;8.430;2023-04-15T00:41:30;88.90;;;83.73;;
4575;SDS011;2300;51.874;8.430;2023-04-15T00:43:59;88.50;;;82.93;;
4575;SDS011;2300;51.874;8.430;2023-04-15T00:46:27;82.57;;;77.50;;
4575;SDS011;2300;51.874;8.430;2023-04-15T00:48:55;81.40;;;76.17;;
4575;SDS011;2300;51.874;8.430;2023-04-15T00:51:21;89.47;;;83.87;;
4575;SDS011;2300;51.874;8.430;2023-04-15T00:53:48;92.77;;;87.23;;
4575;SDS011;2300;51.874;8.430;2023-04-15T00:56:15;88.40;;;83.10;;
4575;SDS011;2300;51.874;8.430;2023-04-15T00:58:42;94.80;;;89.00;;
4575;SDS011;2300;51.874;8.430;2023-04-15T01:01:10;91.87;;;86.13;;
4575;SDS011;2300;51.874;8.430;2023-04-15T01:03:36;85.30;;;80.00;;
4575;SDS011;2300;51.874;8.430;2023-04-15T01:06:03;102.13;;;95.77;;
4575;SDS011;2300;51.874;8.430;2023-04-15T01:08:29;76.10;;;71.20;;
4575;SDS011;2300;51.874;8.430;2023-04-15T01:10:56;83.90;;;78.67;;
4575;SDS011;2300;51.874;8.430;2023-04-15T01:13:26;82.90;;;77.57;;
4575;SDS011;2300;51.874;8.430;2023-04-15T01:15:52;78.63;;;73.73;;
4575;SDS011;2300;51.874;8.430;2023-04-15T01:18:22;77.70;;;72.50;;
4575;SDS011;2300;51.874;8.430;2023-04-15T01:20:48;88.93;;;83.73;;
4575;SDS011;2300;51.874;8.430;2023-04-15T01:23:15;85.30;;;80.10;;
4575;SDS011;2300;51.874;8.430;2023-04-15T01:25:43;82.80;;;77.60;;
4575;SDS011;2300;51.874;8.430;2023-04-15T01:28:11;83.63;;;78.13;;
4575;SDS011;2300;51.874;8.430;2023-04-15T01:30:37;85.47;;;80.13;;
4575;SDS011;2300;51.874;8.430;2023-04-15T01:33:04;88.50;;;82.70;;
4575;SDS011;2300;51.874;8.430;2023-04-15T01:35:30;88.13;;;82.47;;
4575;SDS011;2300;51.874;8.430;2023-04-15T01:37:57;85.27;;;79.73;;
4575;SDS011;2300;51.874;8.430;2023-04-15T01:40:28;80.73;;;75.43;;
4575;SDS011;2300;51.874;8.430;2023-04-15T01:42:56;81.53;;;76.37;;
4575;SDS011;2300;51.874;8.430;2023-04-15T01:45:23;86.53;;;81.07;;
4575;SDS011;2300;51.874;8.430;2023-04-15T01:47:49;81.50;;;76.10;;
4575;SDS011;2300;51.874;8.430;2023-04-15T01:50:16;82.43;;;76.83;;
4575;SDS011;2300;51.874;8.430;2023-04-15T01:52:43;78.20;;;72.90;;
4575;SDS011;2300;51.874;8.430;2023-04-15T01:55:10;90.00;;;84.30;;
4575;SDS011;2300;51.874;8.430;2023-04-15T01:57:37;93.00;;;87.27;;
4575;SDS011;2300;51.874;8.430;2023-04-15T02:00:05;83.43;;;77.93;;
4575;SDS011;2300;51.874;8.430;2023-04-15T02:02:33;97.07;;;90.93;;
4575;SDS011;2300;51.874;8.430;2023-04-15T02:04:59;92.47;;;86.53;;
4575;SDS011;2300;51.874;8.430;2023-04-15T02:07:26;87.13;;;81.43;;
4575;SDS011;2300;51.874;8.430;2023-04-15T02:09:52;95.87;;;89.67;;
4575;SDS011;2300;51.874;8.430;2023-04-15T02:12:19;91.33;;;85.13;;
4575;SDS011;2300;51.874;8.430;2023-04-15T02:14:46;88.50;;;82.50;;
4575;SDS011;2300;51.874;8.430;2023-04-15T02:17:13;86.93;;;80.97;;
4575;SDS011;2300;51.874;8.430;2023-04-15T02:19:40;95.47;;;89.20;;
4575;SDS011;2300;51.874;8.430;2023-04-15T02:22:07;83.97;;;78.30;;
4575;SDS011;2300;51.874;8.430;2023-04-15T02:24:35;82.67;;;77.17;;
4575;SDS011;2300;51.874;8.430;2023-04-15T02:27:01;84.60;;;78.97;;
4575;SDS011;2300;51.874;8.430;2023-04-15T02:29:28;92.53;;;86.50;;
4575;SDS011;2300;51.874;8.430;2023-04-15T02:31:56;95.40;;;88.80;;
4575;SDS011;2300;51.874;8.430;2023-04-15T02:34:24;95.87;;;89.40;;
4575;SDS011;2300;51.874;8.430;2023-04-15T02:36:51;93.07;;;86.27;;
4575;SDS011;2300;51.874;8.430;2023-04-15T02:39:21;97.40;;;89.90;;
4575;SDS011;2300;51.874;8.430;2023-04-15T02:41:47;102.83;;;95.40;;
4575;SDS011;2300;51.874;8.430;2023-04-15T02:44:16;99.83;;;92.63;;
4575;SDS011;2300;51.874;8.430;2023-04-15T02:46:44;98.97;;;92.30;;
4575;SDS011;2300;51.874;8.430;2023-04-15T02:49:12;106.80;;;99.50;;
4575;SDS011;2300;51.874;8.430;2023-04-15T02:51:41;113.30;;;105.57;;
4575;SDS011;2300;51.874;8.430;2023-04-15T02:54:07;115.80;;;107.50;;
4575;SDS011;2300;51.874;8.430;2023-04-15T02:56:33;114.03;;;106.17;;
4575;SDS011;2300;51.874;8.430;2023-04-15T02:59:00;104.23;;;96.70;;
4575;SDS011;2300;51.874;8.430;2023-04-15T03:01:26;106.87;;;99.10;;
4575;SDS011;2300;51.874;8.430;2023-04-15T03:03:53;105.23;;;97.77;;
4575;SDS011;2300;51.874;8.430;2023-04-15T03:06:19;114.77;;;106.43;;
4575;SDS011;2300;51.874;8.430;2023-04-15T03:08:47;118.20;;;109.93;;
4575;SDS011;2300;51.874;8.430;2023-04-15T03:11:14;115.10;;;106.50;;
4575;SDS011;2300;51.874;8.430;2023-04-15T03:13:41;120.20;;;111.60;;
4575;SDS011;2300;51.874;8.430;2023-04-15T03:16:07;110.77;;;102.47;;
4575;SDS011;2300;51.874;8.430;2023-04-15T03:18:34;115.73;;;107.10;;
4575;SDS011;2300;51.874;8.430;2023-04-15T03:21:00;116.30;;;107.70;;
4575;SDS011;2300;51.874;8.430;2023-04-15T03:23:27;119.37;;;110.13;;
4575;SDS011;2300;51.874;8.430;2023-04-15T03:25:56;121.77;;;112.60;;
4575;SDS011;2300;51.874;8.430;2023-04-15T03:28:23;124.33;;;114.87;;
4575;SDS011;2300;51.874;8.430;2023-04-15T03:30:50;126.03;;;116.57;;
4575;SDS011;2300;51.874;8.430;2023-04-15T03:33:16;128.03;;;118.43;;
4575;SDS011;2300;51.874;8.430;2023-04-15T03:35:43;127.80;;;117.77;;
4575;SDS011;2300;51.874;8.430;2023-04-15T03:38:09;123.80;;;114.30;;
4575;SDS011;2300;51.874;8.430;2023-04-15T03:40:36;127.00;;;117.10;;
4575;SDS011;2300;51.874;8.430;2023-04-15T03:43:03;127.40;;;117.17;;
4575;SDS011;2300;51.874;8.430;2023-04-15T03:45:30;125.93;;;115.63;;
4575;SDS011;2300;51.874;8.430;2023-04-15T03:47:56;134.60;;;124.07;;
4575;SDS011;2300;51.874;8.430;2023-04-15T03:50:23;132.33;;;121.63;;
4575;SDS011;2300;51.874;8.430;2023-04-15T03:52:49;129.53;;;118.73;;
4575;SDS011;2300;51.874;8.430;2023-04-15T03:55:16;133.73;;;122.97;;
4575;SDS011;2300;51.874;8.430;2023-04-15T03:57:42;131.33;;;120.80;;
4575;SDS011;2300;51.874;8.430;2023-04-15T04:00:10;130.03;;;118.90;;
4575;SDS011;2300;51.874;8.430;2023-04-15T04:02:37;132.07;;;121.67;;
4575;SDS011;2300;51.874;8.430;2023-04-15T04:05:03;131.40;;;120.60;;
4575;SDS011;2300;51.874;8.430;2023-04-15T04:07:30;134.73;;;123.57;;
4575;SDS011;2300;51.874;8.430;2023-04-15T04:09:56;135.30;;;124.47;;
4575;SDS011;2300;51.874;8.430;2023-04-15T04:12:23;136.83;;;125.37;;
4575;SDS011;2300;51.874;8.430;2023-04-15T04:14:49;140.90;;;129.00;;
4575;SDS011;2300;51.874;8.430;2023-04-15T04:17:17;133.20;;;121.93;;
4575;SDS011;2300;51.874;8.430;2023-04-15T04:19:43;145.63;;;133.97;;
4575;SDS011;2300;51.874;8.430;2023-04-15T04:22:10;136.67;;;124.70;;
4575;SDS011;2300;51.874;8.430;2023-04-15T04:24:36;127.93;;;117.27;;
4575;SDS011;2300;51.874;8.430;2023-04-15T04:27:03;131.00;;;119.70;;
4575;SDS011;2300;51.874;8.430;2023-04-15T04:29:30;132.63;;;121.77;;
4575;SDS011;2300;51.874;8.430;2023-04-15T04:31:56;140.77;;;129.37;;
4575;SDS011;2300;51.874;8.430;2023-04-15T04:34:24;125.43;;;114.43;;
4575;SDS011;2300;51.874;8.430;2023-04-15T04:36:51;128.53;;;117.27;;
4575;SDS011;2300;51.874;8.430;2023-04-15T04:39:17;136.73;;;125.27;;
4575;SDS011;2300;51.874;8.430;2023-04-15T04:41:43;127.73;;;116.83;;
4575;SDS011;2300;51.874;8.430;2023-04-15T04:44:10;120.20;;;110.00;;
4575;SDS011;2300;51.874;8.430;2023-04-15T04:46:36;113.70;;;103.83;;
4575;SDS011;2300;51.874;8.430;2023-04-15T04:49:02;116.30;;;106.30;;
4575;SDS011;2300;51.874;8.430;2023-04-15T04:51:30;112.63;;;102.67;;
4575;SDS011;2300;51.874;8.430;2023-04-15T04:53:57;110.90;;;100.70;;
4575;SDS011;2300;51.874;8.430;2023-04-15T04:56:24;109.03;;;98.70;;
4575;SDS011;2300;51.874;8.430;2023-04-15T04:58:50;110.80;;;100.87;;
4575;SDS011;2300;51.874;8.430;2023-04-15T05:01:17;107.53;;;98.07;;
4575;SDS011;2300;51.874;8.430;2023-04-15T05:03:43;107.47;;;98.10;;
4575;SDS011;2300;51.874;8.430;2023-04-15T05:06:09;99.07;;;89.97;;
4575;SDS011;2300;51.874;8.430;2023-04-15T05:08:37;98.40;;;89.17;;
4575;SDS011;2300;51.874;8.430;2023-04-15T05:11:05;94.73;;;86.03;;
4575;SDS011;2300;51.874;8.430;2023-04-15T05:13:31;92.47;;;84.23;;
4575;SDS011;2300;51.874;8.430;2023-04-15T05:15:58;94.93;;;86.33;;
4575;SDS011;2300;51.874;8.430;2023-04-15T05:18:24;93.30;;;84.77;;
4575;SDS011;2300;51.874;8.430;2023-04-15T05:20:51;95.43;;;86.90;;
4575;SDS011;2300;51.874;8.430;2023-04-15T05:23:17;98.37;;;89.53;;
4575;SDS011;2300;51.874;8.430;2023-04-15T05:25:45;93.37;;;84.77;;
4575;SDS011;2300;51.874;8.430;2023-04-15T05:28:12;93.93;;;85.70;;
4575;SDS011;2300;51.874;8.430;2023-04-15T05:30:38;92.93;;;84.73;;
4575;SDS011;2300;51.874;8.430;2023-04-15T05:33:05;92.57;;;84.13;;
4575;SDS011;2300;51.874;8.430;2023-04-15T05:35:31;97.20;;;88.90;;
4575;SDS011;2300;51.874;8.430;2023-04-15T05:37:58;96.43;;;88.37;;
4575;SDS011;2300;51.874;8.430;2023-04-15T05:40:24;87.10;;;79.70;;
4575;SDS011;2300;51.874;8.430;2023-04-15T05:42:52;91.47;;;83.73;;
4575;SDS011;2300;51.874;8.430;2023-04-15T05:45:19;83.67;;;76.30;;
4575;SDS011;2300;51.874;8.430;2023-04-15T05:47:45;80.10;;;73.10;;
4575;SDS011;2300;51.874;8.430;2023-04-15T05:50:11;77.00;;;70.27;;
4575;SDS011;2300;51.874;8.430;2023-04-15T05:52:38;77.83;;;70.93;;
4575;SDS011;2300;51.874;8.430;2023-04-15T05:55:05;74.87;;;68.87;;
4575;SDS011;2300;51.874;8.430;2023-04-15T05:57:31;71.97;;;65.77;;
4575;SDS011;2300;51.874;8.430;2023-04-15T05:59:59;73.73;;;67.63;;
4575;SDS011;2300;51.874;8.430;2023-04-15T06:02:25;76.20;;;70.13;;
4575;SDS011;2300;51.874;8.430;2023-04-15T06:04:52;72.60;;;66.87;;
4575;SDS011;2300;51.874;8.430;2023-04-15T06:07:18;70.63;;;64.87;;
4575;SDS011;2300;51.874;8.430;2023-04-15T06:09:45;67.70;;;62.13;;
4575;SDS011;2300;51.874;8.430;2023-04-15T06:12:11;62.63;;;57.53;;
4575;SDS011;2300;51.874;8.430;2023-04-15T06:14:37;61.27;;;56.37;;
4575;SDS011;2300;51.874;8.430;2023-04-15T06:17:05;58.20;;;53.70;;
4575;SDS011;2300;51.874;8.430;2023-04-15T06:19:32;57.53;;;53.13;;
4575;SDS011;2300;51.874;8.430;2023-04-15T06:21:59;58.50;;;53.90;;
4575;SDS011;2300;51.874;8.430;2023-04-15T06:24:25;59.10;;;54.57;;
4575;SDS011;2300;51.874;8.430;2023-04-15T06:26:52;60.23;;;55.43;;
4575;SDS011;2300;51.874;8.430;2023-04-15T06:29:18;59.23;;;54.50;;
4575;SDS011;2300;51.874;8.430;2023-04-15T06:31:45;63.00;;;57.97;;
4575;SDS011;2300;51.874;8.430;2023-04-15T06:34:13;62.50;;;57.60;;
4575;SDS011;2300;51.874;8.430;2023-04-15T06:36:40;61.47;;;56.50;;
4575;SDS011;2300;51.874;8.430;2023-04-15T06:39:06;62.13;;;57.30;;
4575;SDS011;2300;51.874;8.430;2023-04-15T06:41:33;63.50;;;58.53;;
4575;SDS011;2300;51.874;8.430;2023-04-15T06:43:59;64.67;;;59.87;;
4575;SDS011;2300;51.874;8.430;2023-04-15T06:46:26;66.87;;;61.90;;
4575;SDS011;2300;51.874;8.430;2023-04-15T06:48:52;64.73;;;59.87;;
4575;SDS011;2300;51.874;8.430;2023-04-15T06:51:20;68.40;;;63.17;;
4575;SDS011;2300;51.874;8.430;2023-04-15T06:53:47;71.37;;;65.97;;
4575;SDS011;2300;51.874;8.430;2023-04-15T06:56:14;66.20;;;61.27;;
4575;SDS011;2300;51.874;8.430;2023-04-15T06:58:40;72.87;;;67.37;;
4575;SDS011;2300;51.874;8.430;2023-04-15T07:01:07;69.23;;;63.93;;
4575;SDS011;2300;51.874;8.430;2023-04-15T07:03:33;70.77;;;65.50;;
4575;SDS011;2300;51.874;8.430;2023-04-15T07:06:00;73.17;;;67.80;;
4575;SDS011;2300;51.874;8.430;2023-04-15T07:08:31;69.10;;;63.77;;
4575;SDS011;2300;51.874;8.430;2023-04-15T07:10:58;70.47;;;64.73;;
4575;SDS011;2300;51.874;8.430;2023-04-15T07:13:25;79.00;;;72.80;;
4575;SDS011;2300;51.874;8.430;2023-04-15T07:15:52;75.73;;;69.73;;
4575;SDS011;2300;51.874;8.430;2023-04-15T07:18:18;75.77;;;69.53;;
4575;SDS011;2300;51.874;8.430;2023-04-15T07:20:45;78.40;;;72.30;;
4575;SDS011;2300;51.874;8.430;2023-04-15T07:23:12;80.03;;;74.13;;
4575;SDS011;2300;51.874;8.430;2023-04-15T07:25:39;80.27;;;73.77;;
4575;SDS011;2300;51.874;8.430;2023-04-15T07:28:06;77.10;;;71.17;;
4575;SDS011;2300;51.874;8.430;2023-04-15T07:30:32;78.77;;;72.77;;
4575;SDS011;2300;51.874;8.430;2023-04-15T07:33:00;78.90;;;72.90;;
4575;SDS011;2300;51.874;8.430;2023-04-15T07:35:26;83.20;;;76.93;;
4575;SDS011;2300;51.874;8.430;2023-04-15T07:37:53;80.63;;;74.63;;
4575;SDS011;2300;51.874;8.430;2023-04-15T07:40:20;80.23;;;74.40;;
4575;SDS011;2300;51.874;8.430;2023-04-15T07:42:48;76.40;;;70.80;;
4575;SDS011;2300;51.874;8.430;2023-04-15T07:45:14;82.90;;;76.90;;
4575;SDS011;2300;51.874;8.430;2023-04-15T07:47:41;77.33;;;72.03;;
4575;SDS011;2300;51.874;8.430;2023-04-15T07:50:08;82.90;;;77.33;;
4575;SDS011;2300;51.874;8.430;2023-04-15T07:52:35;80.97;;;75.10;;
4575;SDS011;2300;51.874;8.430;2023-04-15T07:55:04;84.73;;;78.83;;
4575;SDS011;2300;51.874;8.430;2023-04-15T07:57:31;85.77;;;79.50;;
4575;SDS011;2300;51.874;8.430;2023-04-15T07:59:59;78.53;;;72.83;;
4575;SDS011;2300;51.874;8.430;2023-04-15T08:02:25;74.40;;;68.60;;
4575;SDS011;2300;51.874;8.430;2023-04-15T08:04:52;74.37;;;68.90;;
4575;SDS011;2300;51.874;8.430;2023-04-15T08:07:18;74.77;;;69.27;;
4575;SDS011;2300;51.874;8.430;2023-04-15T08:09:45;78.13;;;72.33;;
4575;SDS011;2300;51.874;8.430;2023-04-15T08:12:12;77.83;;;72.23;;
4575;SDS011;2300;51.874;8.430;2023-04-15T08:14:38;79.43;;;73.37;;
4575;SDS011;2300;51.874;8.430;2023-04-15T08:17:07;84.33;;;78.17;;
4575;SDS011;2300;51.874;8.430;2023-04-15T08:19:33;77.20;;;71.53;;
4575;SDS011;2300;51.874;8.430;2023-04-15T08:22:00;80.50;;;74.67;;
4575;SDS011;2300;51.874;8.430;2023-04-15T08:24:26;75.10;;;69.50;;
4575;SDS011;2300;51.874;8.430;2023-04-15T08:26:53;83.77;;;77.67;;
4575;SDS011;2300;51.874;8.430;2023-04-15T08:29:20;82.10;;;76.30;;
4575;SDS011;2300;51.874;8.430;2023-04-15T08:31:47;79.13;;;73.00;;
4575;SDS011;2300;51.874;8.430;2023-04-15T08:34:14;82.80;;;76.60;;
4575;SDS011;2300;51.874;8.430;2023-04-15T08:36:42;88.20;;;81.57;;
4575;SDS011;2300;51.874;8.430;2023-04-15T08:39:08;78.47;;;72.33;;
4575;SDS011;2300;51.874;8.430;2023-04-15T08:41:38;87.73;;;80.93;;
4575;SDS011;2300;51.874;8.430;2023-04-15T08:44:05;91.03;;;83.37;;
4575;SDS011;2300;51.874;8.430;2023-04-15T08:46:32;87.63;;;80.93;;
4575;SDS011;2300;51.874;8.430;2023-04-15T08:48:59;89.80;;;82.33;;
4575;SDS011;2300;51.874;8.430;2023-04-15T08:51:30;86.83;;;79.93;;
4575;SDS011;2300;51.874;8.430;2023-04-15T08:53:57;95.93;;;88.47;;
4575;SDS011;2300;51.874;8.430;2023-04-15T08:56:25;95.57;;;88.17;;
4575;SDS011;2300;51.874;8.430;2023-04-15T08:58:53;92.13;;;85.50;;
4575;SDS011;2300;51.874;8.430;2023-04-15T09:01:20;91.63;;;84.83;;
4575;SDS011;2300;51.874;8.430;2023-04-15T09:03:47;88.70;;;81.57;;
4575;SDS011;2300;51.874;8.430;2023-04-15T09:06:15;93.07;;;85.97;;
4575;SDS011;2300;51.874;8.430;2023-04-15T09:08:43;89.00;;;82.47;;
4575;SDS011;2300;51.874;8.430;2023-04-15T09:11:09;92.63;;;85.87;;
4575;SDS011;2300;51.874;8.430;2023-04-15T09:13:36;80.03;;;74.03;;
4575;SDS011;2300;51.874;8.430;2023-04-15T09:16:03;80.93;;;74.93;;
4575;SDS011;2300;51.874;8.430;2023-04-15T09:18:31;82.90;;;76.90;;
4575;SDS011;2300;51.874;8.430;2023-04-15T09:21:05;84.73;;;78.77;;
4575;SDS011;2300;51.874;8.430;2023-04-15T09:23:33;88.77;;;82.33;;
4575;SDS011;2300;51.874;8.430;2023-04-15T09:26:01;78.90;;;72.97;;
4575;SDS011;2300;51.874;8.430;2023-04-15T09:28:28;83.33;;;77.70;;
4575;SDS011;2300;51.874;8.430;2023-04-15T09:30:55;75.70;;;70.83;;
4575;SDS011;2300;51.874;8.430;2023-04-15T09:33:22;76.97;;;71.70;;
4575;SDS011;2300;51.874;8.430;2023-04-15T09:35:55;89.13;;;83.23;;
4575;SDS011;2300;51.874;8.430;2023-04-15T09:38:23;91.93;;;86.20;;
4575;SDS011;2300;51.874;8.430;2023-04-15T09:40:50;80.67;;;75.37;;
4575;SDS011;2300;51.874;8.430;2023-04-15T09:43:18;78.73;;;73.53;;
4575;SDS011;2300;51.874;8.430;2023-04-15T09:45:46;80.80;;;75.47;;
4575;SDS011;2300;51.874;8.430;2023-04-15T09:48:15;82.10;;;76.47;;
4575;SDS011;2300;51.874;8.430;2023-04-15T09:50:42;82.40;;;76.53;;
4575;SDS011;2300;51.874;8.430;2023-04-15T09:53:09;79.80;;;74.23;;
4575;SDS011;2300;51.874;8.430;2023-04-15T09:55:36;86.87;;;80.73;;
4575;SDS011;2300;51.874;8.430;2023-04-15T09:58:07;84.50;;;78.57;;
4575;SDS011;2300;51.874;8.430;2023-04-15T10:00:35;82.90;;;77.17;;
4575;SDS011;2300;51.874;8.430;2023-04-15T10:03:03;79.80;;;74.60;;
4575;SDS011;2300;51.874;8.430;2023-04-15T10:05:31;79.73;;;74.63;;
4575;SDS011;2300;51.874;8.430;2023-04-15T10:07:58;73.93;;;69.37;;
4575;SDS011;2300;51.874;8.430;2023-04-15T10:10:26;83.43;;;78.63;;
4575;SDS011;2300;51.874;8.430;2023-04-15T10:12:53;81.40;;;76.73;;
4575;SDS011;2300;51.874;8.430;2023-04-15T10:15:21;80.60;;;76.10;;
4575;SDS011;2300;51.874;8.430;2023-04-15T10:17:50;78.47;;;74.17;;
4575;SDS011;2300;51.874;8.430;2023-04-15T10:20:19;78.83;;;74.43;;
4575;SDS011;2300;51.874;8.430;2023-04-15T10:22:47;79.27;;;74.83;;
4575;SDS011;2300;51.874;8.430;2023-04-15T10:25:14;91.37;;;86.27;;
4575;SDS011;2300;51.874;8.430;2023-04-15T10:27:41;84.47;;;79.73;;
4575;SDS011;2300;51.874;8.430;2023-04-15T10:30:08;78.60;;;74.30;;
4575;SDS011;2300;51.874;8.430;2023-04-15T10:32:35;85.97;;;81.20;;
4575;SDS011;2300;51.874;8.430;2023-04-15T10:35:05;80.77;;;76.10;;
4575;SDS011;2300;51.874;8.430;2023-04-15T10:37:34;76.10;;;71.77;;
4575;SDS011;2300;51.874;8.430;2023-04-15T10:42:51;81.00;;;76.40;;
4575;SDS011;2300;51.874;8.430;2023-04-15T10:45:18;82.60;;;77.93;;
4575;SDS011;2300;51.874;8.430;2023-04-15T10:47:44;84.27;;;79.17;;
4575;SDS011;2300;51.874;8.430;2023-04-15T10:50:12;88.50;;;83.27;;
4575;SDS011;2300;51.874;8.430;2023-04-15T10:52:39;87.43;;;82.83;;
4575;SDS011;2300;51.874;8.430;2023-04-15T10:55:11;91.03;;;85.93;;
4575;SDS011;2300;51.874;8.430;2023-04-15T10:57:40;93.70;;;88.33;;
4575;SDS011;2300;51.874;8.430;2023-04-15T11:00:09;89.73;;;84.17;;
4575;SDS011;2300;51.874;8.430;2023-04-15T11:02:38;90.80;;;85.00;;
4575;SDS011;2300;51.874;8.430;2023-04-15T11:05:19;89.00;;;83.50;;
4575;SDS011;2300;51.874;8.430;2023-04-15T11:07:50;90.87;;;85.33;;
4575;SDS011;2300;51.874;8.430;2023-04-15T11:13:24;99.63;;;93.47;;
4575;SDS011;2300;51.874;8.430;2023-04-15T11:15:56;105.80;;;99.50;;
4575;SDS011;2300;51.874;8.430;2023-04-15T11:18:25;98.43;;;92.17;;
4575;SDS011;2300;51.874;8.430;2023-04-15T11:20:56;103.37;;;97.27;;
4575;SDS011;2300;51.874;8.430;2023-04-15T11:23:28;95.30;;;89.10;;
4575;SDS011;2300;51.874;8.430;2023-04-15T11:25:56;96.67;;;89.63;;
4575;SDS011;2300;51.874;8.430;2023-04-15T11:28:24;87.17;;;81.40;;
4575;SDS011;2300;51.874;8.430;2023-04-15T11:30:52;115.70;;;108.37;;
4575;SDS011;2300;51.874;8.430;2023-04-15T11:33:19;90.90;;;85.07;;
4575;SDS011;2300;51.874;8.430;2023-04-15T11:35:46;89.87;;;84.33;;
4575;SDS011;2300;51.874;8.430;2023-04-15T11:38:15;94.87;;;88.83;;
4575;SDS011;2300;51.874;8.430;2023-04-15T11:40:42;89.93;;;84.33;;
4575;SDS011;2300;51.874;8.430;2023-04-15T11:43:10;93.23;;;87.20;;
4575;SDS011;2300;51.874;8.430;2023-04-15T11:45:43;94.17;;;88.03;;
4575;SDS011;2300;51.874;8.430;2023-04-15T11:48:15;97.70;;;91.20;;
4575;SDS011;2300;51.874;8.430;2023-04-15T11:50:42;86.67;;;80.83;;
4575;SDS011;2300;51.874;8.430;2023-04-15T11:53:09;88.17;;;82.53;;
4575;SDS011;2300;51.874;8.430;2023-04-15T11:55:41;86.80;;;81.37;;
4575;SDS011;2300;51.874;8.430;2023-04-15T11:58:10;85.33;;;80.17;;
4575;SDS011;2300;51.874;8.430;2023-04-15T12:00:39;85.53;;;80.43;;
4575;SDS011;2300;51.874;8.430;2023-04-15T12:08:54;89.13;;;83.40;;
4575;SDS011;2300;51.874;8.430;2023-04-15T12:11:29;91.07;;;85.20;;
4575;SDS011;2300;51.874;8.430;2023-04-15T12:13:57;88.27;;;82.70;;
4575;SDS011;2300;51.874;8.430;2023-04-15T12:16:27;88.17;;;82.67;;
4575;SDS011;2300;51.874;8.430;2023-04-15T12:18:55;90.77;;;84.87;;
4575;SDS011;2300;51.874;8.430;2023-04-15T12:21:23;88.60;;;82.20;;
4575;SDS011;2300;51.874;8.430;2023-04-15T12:23:52;89.73;;;83.33;;
4575;SDS011;2300;51.874;8.430;2023-04-15T12:26:24;84.87;;;78.90;;
4575;SDS011;2300;51.874;8.430;2023-04-15T12:28:54;126.67;;;119.17;;
4575;SDS011;2300;51.874;8.430;2023-04-15T12:31:21;113.63;;;106.83;;
4575;SDS011;2300;51.874;8.430;2023-04-15T12:33:48;86.30;;;81.00;;
4575;SDS011;2300;51.874;8.430;2023-04-15T12:36:15;98.33;;;92.30;;
4575;SDS011;2300;51.874;8.430;2023-04-15T12:38:41;89.53;;;84.03;;
4575;SDS011;2300;51.874;8.430;2023-04-15T12:41:07;93.03;;;87.37;;
4575;SDS011;2300;51.874;8.430;2023-04-15T12:43:34;101.03;;;94.87;;
4575;SDS011;2300;51.874;8.430;2023-04-15T12:46:02;95.73;;;90.00;;
4575;SDS011;2300;51.874;8.430;2023-04-15T12:48:28;94.97;;;88.70;;
4575;SDS011;2300;51.874;8.430;2023-04-15T12:50:55;96.07;;;90.17;;
4575;SDS011;2300;51.874;8.430;2023-04-15T12:53:21;100.47;;;93.97;;
4575;SDS011;2300;51.874;8.430;2023-04-15T12:55:48;94.17;;;88.13;;
4575;SDS011;2300;51.874;8.430;2023-04-15T12:58:14;106.97;;;100.53;;
4575;SDS011;2300;51.874;8.430;2023-04-15T13:00:41;105.10;;;98.87;;
4575;SDS011;2300;51.874;8.430;2023-04-15T13:03:08;106.93;;;100.57;;
4575;SDS011;2300;51.874;8.430;2023-04-15T13:05:35;98.33;;;91.77;;
4575;SDS011;2300;51.874;8.430;2023-04-15T13:08:03;109.83;;;103.07;;
4575;SDS011;2300;51.874;8.430;2023-04-15T13:10:30;107.50;;;101.33;;
4575;SDS011;2300;51.874;8.430;2023-04-15T13:12:57;103.17;;;97.23;;
4575;SDS011;2300;51.874;8.430;2023-04-15T13:15:23;119.77;;;112.97;;
4575;SDS011;2300;51.874;8.430;2023-04-15T13:17:50;112.37;;;105.97;;
4575;SDS011;2300;51.874;8.430;2023-04-15T13:20:18;96.80;;;91.20;;
4575;SDS011;2300;51.874;8.430;2023-04-15T13:22:44;103.93;;;98.07;;
4575;SDS011;2300;51.874;8.430;2023-04-15T13:25:11;99.87;;;94.07;;
4575;SDS011;2300;51.874;8.430;2023-04-15T13:27:37;108.97;;;102.63;;
4575;SDS011;2300;51.874;8.430;2023-04-15T13:30:04;89.70;;;85.00;;
4575;SDS011;2300;51.874;8.430;2023-04-15T13:32:31;92.40;;;87.60;;
4575;SDS011;2300;51.874;8.430;2023-04-15T13:34:58;97.03;;;92.20;;
4575;SDS011;2300;51.874;8.430;2023-04-15T13:37:26;100.30;;;95.33;;
4575;SDS011;2300;51.874;8.430;2023-04-15T13:39:53;102.53;;;97.37;;
4575;SDS011;2300;51.874;8.430;2023-04-15T13:42:20;99.17;;;94.27;;
4575;SDS011;2300;51.874;8.430;2023-04-15T13:44:48;99.13;;;94.13;;
4575;SDS011;2300;51.874;8.430;2023-04-15T13:47:14;101.50;;;96.17;;
4575;SDS011;2300;51.874;8.430;2023-04-15T13:49:41;89.00;;;84.43;;
4575;SDS011;2300;51.874;8.430;2023-04-15T13:52:08;92.30;;;87.53;;
4575;SDS011;2300;51.874;8.430;2023-04-15T13:54:36;90.77;;;86.10;;
4575;SDS011;2300;51.874;8.430;2023-04-15T13:57:02;93.10;;;87.90;;
4575;SDS011;2300;51.874;8.430;2023-04-15T13:59:30;93.57;;;88.67;;
4575;SDS011;2300;51.874;8.430;2023-04-15T14:01:56;86.60;;;81.97;;
4575;SDS011;2300;51.874;8.430;2023-04-15T14:04:23;95.43;;;90.50;;
4575;SDS011;2300;51.874;8.430;2023-04-15T14:06:49;100.80;;;95.57;;
4575;SDS011;2300;51.874;8.430;2023-04-15T14:09:16;127.30;;;120.57;;
4575;SDS011;2300;51.874;8.430;2023-04-15T14:11:44;101.73;;;95.83;;
4575;SDS011;2300;51.874;8.430;2023-04-15T14:14:10;115.50;;;109.23;;
4575;SDS011;2300;51.874;8.430;2023-04-15T14:16:36;98.53;;;93.23;;
4575;SDS011;2300;51.874;8.430;2023-04-15T14:19:03;112.10;;;106.07;;
4575;SDS011;2300;51.874;8.430;2023-04-15T14:21:30;99.47;;;94.17;;
4575;SDS011;2300;51.874;8.430;2023-04-15T14:23:57;91.17;;;86.20;;
4575;SDS011;2300;51.874;8.430;2023-04-15T14:26:24;103.83;;;98.27;;
4575;SDS011;2300;51.874;8.430;2023-04-15T14:28:52;100.30;;;94.63;;
4575;SDS011;2300;51.874;8.430;2023-04-15T14:31:19;103.03;;;97.53;;
4575;SDS011;2300;51.874;8.430;2023-04-15T14:33:45;102.30;;;96.30;;
4575;SDS011;2300;51.874;8.430;2023-04-15T14:36:11;92.57;;;87.20;;
4575;SDS011;2300;51.874;8.430;2023-04-15T14:38:38;96.33;;;90.50;;
4575;SDS011;2300;51.874;8.430;2023-04-15T14:41:05;107.47;;;100.60;;
4575;SDS011;2300;51.874;8.430;2023-04-15T14:43:32;95.00;;;88.63;;
4575;SDS011;2300;51.874;8.430;2023-04-15T14:45:59;97.67;;;91.77;;
4575;SDS011;2300;51.874;8.430;2023-04-15T14:48:26;97.23;;;91.33;;
4575;SDS011;2300;51.874;8.430;2023-04-15T14:50:53;103.03;;;97.03;;
4575;SDS011;2300;51.874;8.430;2023-04-15T14:53:19;103.57;;;97.60;;
4575;SDS011;2300;51.874;8.430;2023-04-15T14:55:46;101.67;;;95.37;;